sensor_id;sensor_type;location;lat;lon;timestamp;temperature;humidity
71291;DHT22;59073;51.994;4.448;2023-03-04T00:01:25;7.17;72.99
71291;DHT22;59073;51.994;4.448;2023-03-04T00:03:51;7.14;72.82
71291;DHT22;59073;51.994;4.448;2023-03-04T00:06:19;7.16;72.81
71291;DHT22;59073;51.994;4.448;2023-03-04T00:08:44;7.26;72.25
71291;DHT22;59073;51.994;4.448;2023-03-04T00:11:10;7.01;72.43
71291;DHT22;59073;51.994;4.448;2023-03-04T00:13:38;7.01;72.33
71291;DHT22;59073;51.994;4.448;2023-03-04T00:16:06;7.11;72.08
71291;DHT22;59073;51.994;4.448;2023-03-04T00:18:32;7.08;72.57
71291;DHT22;59073;51.994;4.448;2023-03-04T00:20:57;7.10;72.46
71291;DHT22;59073;51.994;4.448;2023-03-04T00:23:23;7.18;72.70
71291;DHT22;59073;51.994;4.448;2023-03-04T00:25:48;7.34;72.12
71291;DHT22;59073;51.994;4.448;2023-03-04T00:28:14;7.32;72.04
71291;DHT22;59073;51.994;4.448;2023-03-04T00:30:39;7.48;71.97
71291;DHT22;59073;51.994;4.448;2023-03-04T00:33:05;7.54;71.33
71291;DHT22;59073;51.994;4.448;2023-03-04T00:35:30;7.47;71.76
71291;DHT22;59073;51.994;4.448;2023-03-04T00:37:56;7.34;71.84
71291;DHT22;59073;51.994;4.448;2023-03-04T00:40:21;7.24;72.37
71291;DHT22;59073;51.994;4.448;2023-03-04T00:42:46;7.31;72.34
71291;DHT22;59073;51.994;4.448;2023-03-04T00:45:12;7.21;72.36
71291;DHT22;59073;51.994;4.448;2023-03-04T00:47:37;7.23;72.47
71291;DHT22;59073;51.994;4.448;2023-03-04T00:50:03;7.24;72.58
71291;DHT22;59073;51.994;4.448;2023-03-04T00:52:29;7.23;72.07
71291;DHT22;59073;51.994;4.448;2023-03-04T00:54:54;7.17;72.24
71291;DHT22;59073;51.994;4.448;2023-03-04T00:57:19;7.08;71.98
71291;DHT22;59073;51.994;4.448;2023-03-04T00:59:45;7.07;72.44
71291;DHT22;59073;51.994;4.448;2023-03-04T01:02:11;7.06;71.67
71291;DHT22;59073;51.994;4.448;2023-03-04T01:04:36;6.96;71.80
71291;DHT22;59073;51.994;4.448;2023-03-04T01:07:02;6.95;71.51
71291;DHT22;59073;51.994;4.448;2023-03-04T01:09:27;6.92;71.09
71291;DHT22;59073;51.994;4.448;2023-03-04T01:11:53;7.06;70.96
71291;DHT22;59073;51.994;4.448;2023-03-04T01:14:18;7.07;70.81
71291;DHT22;59073;51.994;4.448;2023-03-04T01:16:44;7.06;70.98
71291;DHT22;59073;51.994;4.448;2023-03-04T01:19:10;7.16;70.45
71291;DHT22;59073;51.994;4.448;2023-03-04T01:21:36;7.08;70.51
71291;DHT22;59073;51.994;4.448;2023-03-04T01:24:01;7.20;70.25
71291;DHT22;59073;51.994;4.448;2023-03-04T01:26:26;7.18;70.73
71291;DHT22;59073;51.994;4.448;2023-03-04T01:28:52;7.32;70.46
71291;DHT22;59073;51.994;4.448;2023-03-04T01:31:17;7.26;70.73
71291;DHT22;59073;51.994;4.448;2023-03-04T01:33:43;7.37;70.62
71291;DHT22;59073;51.994;4.448;2023-03-04T01:36:08;7.32;70.41
71291;DHT22;59073;51.994;4.448;2023-03-04T01:38:34;7.28;70.91
71291;DHT22;59073;51.994;4.448;2023-03-04T01:40:59;7.28;71.02
71291;DHT22;59073;51.994;4.448;2023-03-04T01:43:27;7.23;71.53
71291;DHT22;59073;51.994;4.448;2023-03-04T01:45:55;7.14;71.79
71291;DHT22;59073;51.994;4.448;2023-03-04T01:48:26;7.06;72.57
71291;DHT22;59073;51.994;4.448;2023-03-04T01:50:52;7.16;72.29
71291;DHT22;59073;51.994;4.448;2023-03-04T01:53:24;7.14;72.42
71291;DHT22;59073;51.994;4.448;2023-03-04T01:56:02;7.11;72.26
71291;DHT22;59073;51.994;4.448;2023-03-04T01:58:34;7.26;71.84
71291;DHT22;59073;51.994;4.448;2023-03-04T02:01:00;7.30;71.85
71291;DHT22;59073;51.994;4.448;2023-03-04T02:03:26;7.18;71.61
71291;DHT22;59073;51.994;4.448;2023-03-04T02:05:52;7.18;71.53
71291;DHT22;59073;51.994;4.448;2023-03-04T02:08:20;7.14;71.95
71291;DHT22;59073;51.994;4.448;2023-03-04T02:10:47;7.04;71.98
71291;DHT22;59073;51.994;4.448;2023-03-04T02:13:14;6.97;71.66
71291;DHT22;59073;51.994;4.448;2023-03-04T02:15:41;7.03;72.01
71291;DHT22;59073;51.994;4.448;2023-03-04T02:18:20;6.97;70.97
71291;DHT22;59073;51.994;4.448;2023-03-04T02:21:06;7.07;71.33
71291;DHT22;59073;51.994;4.448;2023-03-04T02:23:40;7.06;71.42
71291;DHT22;59073;51.994;4.448;2023-03-04T02:28:40;7.35;70.72
71291;DHT22;59073;51.994;4.448;2023-03-04T02:31:05;7.30;70.98
71291;DHT22;59073;51.994;4.448;2023-03-04T02:33:39;7.21;71.00
71291;DHT22;59073;51.994;4.448;2023-03-04T02:36:04;7.21;71.18
71291;DHT22;59073;51.994;4.448;2023-03-04T02:38:30;7.17;71.20
71291;DHT22;59073;51.994;4.448;2023-03-04T02:40:57;7.07;71.62
71291;DHT22;59073;51.994;4.448;2023-03-04T02:43:22;7.24;71.50
71291;DHT22;59073;51.994;4.448;2023-03-04T02:45:49;7.27;71.34
71291;DHT22;59073;51.994;4.448;2023-03-04T02:48:17;7.14;71.86
71291;DHT22;59073;51.994;4.448;2023-03-04T02:50:47;7.18;71.76
71291;DHT22;59073;51.994;4.448;2023-03-04T02:53:14;7.17;72.10
71291;DHT22;59073;51.994;4.448;2023-03-04T02:55:40;7.24;71.64
71291;DHT22;59073;51.994;4.448;2023-03-04T02:58:08;7.13;72.00
71291;DHT22;59073;51.994;4.448;2023-03-04T03:00:33;7.13;71.93
71291;DHT22;59073;51.994;4.448;2023-03-04T03:02:59;7.21;72.20
71291;DHT22;59073;51.994;4.448;2023-03-04T03:05:29;7.16;72.27
71291;DHT22;59073;51.994;4.448;2023-03-04T03:07:55;7.11;73.06
71291;DHT22;59073;51.994;4.448;2023-03-04T03:10:21;7.16;72.55
71291;DHT22;59073;51.994;4.448;2023-03-04T03:12:46;6.99;73.17
71291;DHT22;59073;51.994;4.448;2023-03-04T03:15:13;6.86;72.78
71291;DHT22;59073;51.994;4.448;2023-03-04T03:17:39;6.82;72.88
71291;DHT22;59073;51.994;4.448;2023-03-04T03:20:05;6.75;72.83
71291;DHT22;59073;51.994;4.448;2023-03-04T03:22:31;6.72;72.40
71291;DHT22;59073;51.994;4.448;2023-03-04T03:24:57;6.71;72.09
71291;DHT22;59073;51.994;4.448;2023-03-04T03:27:22;6.59;72.38
71291;DHT22;59073;51.994;4.448;2023-03-04T03:29:48;6.61;72.34
71291;DHT22;59073;51.994;4.448;2023-03-04T03:32:14;6.62;72.44
71291;DHT22;59073;51.994;4.448;2023-03-04T03:34:40;6.64;72.41
71291;DHT22;59073;51.994;4.448;2023-03-04T03:37:05;6.66;72.25
71291;DHT22;59073;51.994;4.448;2023-03-04T03:39:31;6.65;72.43
71291;DHT22;59073;51.994;4.448;2023-03-04T03:41:56;6.75;72.06
71291;DHT22;59073;51.994;4.448;2023-03-04T03:44:27;6.69;71.65
71291;DHT22;59073;51.994;4.448;2023-03-04T03:46:52;6.77;71.75
71291;DHT22;59073;51.994;4.448;2023-03-04T03:49:18;6.86;71.60
71291;DHT22;59073;51.994;4.448;2023-03-04T03:51:43;6.86;71.48
71291;DHT22;59073;51.994;4.448;2023-03-04T03:54:09;6.93;71.81
71291;DHT22;59073;51.994;4.448;2023-03-04T03:56:34;7.03;71.69
71291;DHT22;59073;51.994;4.448;2023-03-04T03:59:00;6.92;72.27
71291;DHT22;59073;51.994;4.448;2023-03-04T04:01:25;6.99;72.32
71291;DHT22;59073;51.994;4.448;2023-03-04T04:03:51;7.07;71.94
71291;DHT22;59073;51.994;4.448;2023-03-04T04:06:17;7.01;72.24
71291;DHT22;59073;51.994;4.448;2023-03-04T04:08:42;6.97;73.06
71291;DHT22;59073;51.994;4.448;2023-03-04T04:11:09;6.87;72.65
71291;DHT22;59073;51.994;4.448;2023-03-04T04:13:34;6.79;72.51
71291;DHT22;59073;51.994;4.448;2023-03-04T04:16:00;6.85;72.61
71291;DHT22;59073;51.994;4.448;2023-03-04T04:18:25;6.87;72.67
71291;DHT22;59073;51.994;4.448;2023-03-04T04:20:53;6.87;72.47
71291;DHT22;59073;51.994;4.448;2023-03-04T04:23:18;6.86;72.75
71291;DHT22;59073;51.994;4.448;2023-03-04T04:25:44;6.80;72.97
71291;DHT22;59073;51.994;4.448;2023-03-04T04:28:09;6.69;74.25
71291;DHT22;59073;51.994;4.448;2023-03-04T04:30:35;6.58;75.20
71291;DHT22;59073;51.994;4.448;2023-03-04T04:33:00;6.55;75.67
71291;DHT22;59073;51.994;4.448;2023-03-04T04:35:30;6.58;75.80
71291;DHT22;59073;51.994;4.448;2023-03-04T04:37:56;6.64;75.54
71291;DHT22;59073;51.994;4.448;2023-03-04T04:40:21;6.73;75.17
71291;DHT22;59073;51.994;4.448;2023-03-04T04:42:47;6.58;74.06
71291;DHT22;59073;51.994;4.448;2023-03-04T04:45:12;6.62;73.96
71291;DHT22;59073;51.994;4.448;2023-03-04T04:47:38;6.72;73.92
71291;DHT22;59073;51.994;4.448;2023-03-04T04:50:04;6.69;73.75
71291;DHT22;59073;51.994;4.448;2023-03-04T04:52:29;6.66;72.28
71291;DHT22;59073;51.994;4.448;2023-03-04T04:54:55;6.76;72.46
71291;DHT22;59073;51.994;4.448;2023-03-04T04:57:20;6.82;71.59
71291;DHT22;59073;51.994;4.448;2023-03-04T04:59:46;6.90;71.22
71291;DHT22;59073;51.994;4.448;2023-03-04T05:02:11;6.92;71.48
71291;DHT22;59073;51.994;4.448;2023-03-04T05:04:37;6.93;71.09
71291;DHT22;59073;51.994;4.448;2023-03-04T05:07:02;6.85;71.65
71291;DHT22;59073;51.994;4.448;2023-03-04T05:09:27;6.89;71.68
71291;DHT22;59073;51.994;4.448;2023-03-04T05:11:53;6.93;71.70
71291;DHT22;59073;51.994;4.448;2023-03-04T05:14:18;7.01;71.97
71291;DHT22;59073;51.994;4.448;2023-03-04T05:16:44;6.96;72.42
71291;DHT22;59073;51.994;4.448;2023-03-04T05:19:09;6.85;72.53
71291;DHT22;59073;51.994;4.448;2023-03-04T05:21:35;6.80;73.06
71291;DHT22;59073;51.994;4.448;2023-03-04T05:24:01;6.92;73.34
71291;DHT22;59073;51.994;4.448;2023-03-04T05:26:26;6.83;73.16
71291;DHT22;59073;51.994;4.448;2023-03-04T05:28:51;6.79;73.93
71291;DHT22;59073;51.994;4.448;2023-03-04T05:31:17;6.80;74.00
71291;DHT22;59073;51.994;4.448;2023-03-04T05:33:42;6.76;74.15
71291;DHT22;59073;51.994;4.448;2023-03-04T05:36:08;6.75;74.73
71291;DHT22;59073;51.994;4.448;2023-03-04T05:38:34;6.79;74.91
71291;DHT22;59073;51.994;4.448;2023-03-04T05:41:02;6.71;74.60
71291;DHT22;59073;51.994;4.448;2023-03-04T05:43:30;6.69;74.84
71291;DHT22;59073;51.994;4.448;2023-03-04T05:45:56;6.71;74.63
71291;DHT22;59073;51.994;4.448;2023-03-04T05:48:22;6.68;73.51
71291;DHT22;59073;51.994;4.448;2023-03-04T05:50:58;6.77;73.51
71291;DHT22;59073;51.994;4.448;2023-03-04T05:53:24;6.85;73.47
71291;DHT22;59073;51.994;4.448;2023-03-04T05:55:50;6.80;73.26
71291;DHT22;59073;51.994;4.448;2023-03-04T05:58:16;6.89;72.93
71291;DHT22;59073;51.994;4.448;2023-03-04T06:00:43;7.03;72.48
71291;DHT22;59073;51.994;4.448;2023-03-04T06:03:14;6.99;72.63
71291;DHT22;59073;51.994;4.448;2023-03-04T06:05:39;6.96;73.07
71291;DHT22;59073;51.994;4.448;2023-03-04T06:08:05;6.96;73.32
71291;DHT22;59073;51.994;4.448;2023-03-04T06:10:30;6.99;73.21
71291;DHT22;59073;51.994;4.448;2023-03-04T06:12:56;6.96;73.71
71291;DHT22;59073;51.994;4.448;2023-03-04T06:15:21;6.82;74.32
71291;DHT22;59073;51.994;4.448;2023-03-04T06:17:46;6.80;74.86
71291;DHT22;59073;51.994;4.448;2023-03-04T06:20:21;6.73;75.24
71291;DHT22;59073;51.994;4.448;2023-03-04T06:22:46;6.82;75.61
71291;DHT22;59073;51.994;4.448;2023-03-04T06:25:11;6.83;75.57
71291;DHT22;59073;51.994;4.448;2023-03-04T06:27:37;6.69;77.82
71291;DHT22;59073;51.994;4.448;2023-03-04T06:30:03;6.59;78.68
71291;DHT22;59073;51.994;4.448;2023-03-04T06:32:28;6.55;78.81
71291;DHT22;59073;51.994;4.448;2023-03-04T06:34:54;6.61;78.93
71291;DHT22;59073;51.994;4.448;2023-03-04T06:37:20;6.75;78.91
71291;DHT22;59073;51.994;4.448;2023-03-04T06:39:46;6.82;78.62
71291;DHT22;59073;51.994;4.448;2023-03-04T06:42:12;6.97;78.45
71291;DHT22;59073;51.994;4.448;2023-03-04T06:44:37;6.93;78.55
71291;DHT22;59073;51.994;4.448;2023-03-04T06:47:03;6.95;78.42
71291;DHT22;59073;51.994;4.448;2023-03-04T06:49:28;6.89;78.57
71291;DHT22;59073;51.994;4.448;2023-03-04T06:51:54;6.97;78.57
71291;DHT22;59073;51.994;4.448;2023-03-04T06:54:20;6.95;78.39
71291;DHT22;59073;51.994;4.448;2023-03-04T06:56:45;6.93;78.27
71291;DHT22;59073;51.994;4.448;2023-03-04T06:59:11;7.00;78.31
71291;DHT22;59073;51.994;4.448;2023-03-04T07:01:36;7.00;78.10
71291;DHT22;59073;51.994;4.448;2023-03-04T07:04:03;7.14;77.90
71291;DHT22;59073;51.994;4.448;2023-03-04T07:06:29;7.20;77.35
71291;DHT22;59073;51.994;4.448;2023-03-04T07:08:57;7.26;76.85
71291;DHT22;59073;51.994;4.448;2023-03-04T07:11:24;7.28;76.82
71291;DHT22;59073;51.994;4.448;2023-03-04T07:13:49;7.23;76.64
71291;DHT22;59073;51.994;4.448;2023-03-04T07:16:19;7.32;76.59
71291;DHT22;59073;51.994;4.448;2023-03-04T07:18:45;7.26;76.65
71291;DHT22;59073;51.994;4.448;2023-03-04T07:21:12;7.16;76.58
71291;DHT22;59073;51.994;4.448;2023-03-04T07:23:38;7.07;76.18
71291;DHT22;59073;51.994;4.448;2023-03-04T07:26:04;6.90;76.49
71291;DHT22;59073;51.994;4.448;2023-03-04T07:28:29;6.82;77.08
71291;DHT22;59073;51.994;4.448;2023-03-04T07:30:55;6.92;77.31
71291;DHT22;59073;51.994;4.448;2023-03-04T07:33:20;6.85;77.61
71291;DHT22;59073;51.994;4.448;2023-03-04T07:35:46;6.76;78.01
71291;DHT22;59073;51.994;4.448;2023-03-04T07:38:11;6.77;78.14
71291;DHT22;59073;51.994;4.448;2023-03-04T07:40:37;6.99;77.79
71291;DHT22;59073;51.994;4.448;2023-03-04T07:43:03;7.10;77.43
71291;DHT22;59073;51.994;4.448;2023-03-04T07:45:29;7.58;76.76
71291;DHT22;59073;51.994;4.448;2023-03-04T07:47:54;7.89;75.61
71291;DHT22;59073;51.994;4.448;2023-03-04T07:50:20;7.92;75.03
71291;DHT22;59073;51.994;4.448;2023-03-04T07:52:47;7.51;76.36
71291;DHT22;59073;51.994;4.448;2023-03-04T07:55:15;7.54;77.54
71291;DHT22;59073;51.994;4.448;2023-03-04T07:57:42;7.38;77.22
71291;DHT22;59073;51.994;4.448;2023-03-04T08:00:10;7.20;78.18
71291;DHT22;59073;51.994;4.448;2023-03-04T08:02:36;7.23;78.13
71291;DHT22;59073;51.994;4.448;2023-03-04T08:05:02;7.20;78.36
71291;DHT22;59073;51.994;4.448;2023-03-04T08:07:27;7.34;78.11
71291;DHT22;59073;51.994;4.448;2023-03-04T08:09:53;7.61;77.56
71291;DHT22;59073;51.994;4.448;2023-03-04T08:12:18;7.55;77.76
71291;DHT22;59073;51.994;4.448;2023-03-04T08:14:44;7.64;77.07
71291;DHT22;59073;51.994;4.448;2023-03-04T08:17:09;7.58;76.60
71291;DHT22;59073;51.994;4.448;2023-03-04T08:19:35;7.81;76.94
71291;DHT22;59073;51.994;4.448;2023-03-04T08:22:01;7.96;76.21
71291;DHT22;59073;51.994;4.448;2023-03-04T08:24:27;7.99;75.54
71291;DHT22;59073;51.994;4.448;2023-03-04T08:26:52;7.99;75.81
71291;DHT22;59073;51.994;4.448;2023-03-04T08:29:21;8.05;75.71
71291;DHT22;59073;51.994;4.448;2023-03-04T08:31:48;8.29;75.93
71291;DHT22;59073;51.994;4.448;2023-03-04T08:34:19;8.16;75.36
71291;DHT22;59073;51.994;4.448;2023-03-04T08:36:45;7.79;77.50
71291;DHT22;59073;51.994;4.448;2023-03-04T08:39:13;7.62;78.71
71291;DHT22;59073;51.994;4.448;2023-03-04T08:41:39;7.76;78.28
71291;DHT22;59073;51.994;4.448;2023-03-04T08:44:05;7.82;77.66
71291;DHT22;59073;51.994;4.448;2023-03-04T08:46:32;7.62;78.49
71291;DHT22;59073;51.994;4.448;2023-03-04T08:48:58;7.31;80.37
71291;DHT22;59073;51.994;4.448;2023-03-04T08:51:24;7.23;81.73
71291;DHT22;59073;51.994;4.448;2023-03-04T08:53:49;7.23;81.62
71291;DHT22;59073;51.994;4.448;2023-03-04T08:56:15;7.07;82.19
71291;DHT22;59073;51.994;4.448;2023-03-04T08:58:41;7.13;82.19
71291;DHT22;59073;51.994;4.448;2023-03-04T09:01:09;7.08;81.95
71291;DHT22;59073;51.994;4.448;2023-03-04T09:03:35;7.11;80.79
71291;DHT22;59073;51.994;4.448;2023-03-04T09:06:02;7.27;81.00
71291;DHT22;59073;51.994;4.448;2023-03-04T09:08:31;7.51;80.40
71291;DHT22;59073;51.994;4.448;2023-03-04T09:10:57;7.74;79.22
71291;DHT22;59073;51.994;4.448;2023-03-04T09:13:26;7.88;78.96
71291;DHT22;59073;51.994;4.448;2023-03-04T09:15:52;8.33;77.68
71291;DHT22;59073;51.994;4.448;2023-03-04T09:18:20;8.74;76.99
71291;DHT22;59073;51.994;4.448;2023-03-04T09:20:47;8.88;77.26
71291;DHT22;59073;51.994;4.448;2023-03-04T09:23:13;8.65;75.73
71291;DHT22;59073;51.994;4.448;2023-03-04T09:25:39;8.51;76.94
71291;DHT22;59073;51.994;4.448;2023-03-04T09:28:05;8.12;80.12
71291;DHT22;59073;51.994;4.448;2023-03-04T09:30:32;7.62;82.04
71291;DHT22;59073;51.994;4.448;2023-03-04T09:32:57;7.67;82.69
71291;DHT22;59073;51.994;4.448;2023-03-04T09:35:23;7.65;83.01
71291;DHT22;59073;51.994;4.448;2023-03-04T09:37:49;7.61;83.04
71291;DHT22;59073;51.994;4.448;2023-03-04T09:40:20;7.83;82.81
71291;DHT22;59073;51.994;4.448;2023-03-04T09:42:52;7.92;82.78
71291;DHT22;59073;51.994;4.448;2023-03-04T09:45:22;8.03;80.29
71291;DHT22;59073;51.994;4.448;2023-03-04T09:47:53;8.17;79.10
71291;DHT22;59073;51.994;4.448;2023-03-04T09:50:20;8.51;77.42
71291;DHT22;59073;51.994;4.448;2023-03-04T09:52:59;8.46;78.09
71291;DHT22;59073;51.994;4.448;2023-03-04T09:55:49;8.50;78.23
71291;DHT22;59073;51.994;4.448;2023-03-04T09:58:44;8.58;76.98
71291;DHT22;59073;51.994;4.448;2023-03-04T10:01:33;8.30;78.62
71291;DHT22;59073;51.994;4.448;2023-03-04T10:04:17;8.06;78.37
71291;DHT22;59073;51.994;4.448;2023-03-04T10:06:47;8.10;78.11
71291;DHT22;59073;51.994;4.448;2023-03-04T10:09:24;8.10;79.12
71291;DHT22;59073;51.994;4.448;2023-03-04T10:11:58;8.30;78.24
71291;DHT22;59073;51.994;4.448;2023-03-04T10:14:37;8.39;79.50
71291;DHT22;59073;51.994;4.448;2023-03-04T10:22:36;7.76;82.61
71291;DHT22;59073;51.994;4.448;2023-03-04T10:25:24;7.57;84.20
71291;DHT22;59073;51.994;4.448;2023-03-04T10:28:05;7.74;85.39
71291;DHT22;59073;51.994;4.448;2023-03-04T10:30:58;7.99;84.63
71291;DHT22;59073;51.994;4.448;2023-03-04T10:33:32;7.92;83.17
71291;DHT22;59073;51.994;4.448;2023-03-04T10:36:35;7.96;83.85
71291;DHT22;59073;51.994;4.448;2023-03-04T10:39:06;7.88;81.74
71291;DHT22;59073;51.994;4.448;2023-03-04T10:41:33;7.99;81.58
71291;DHT22;59073;51.994;4.448;2023-03-04T10:46:24;8.48;81.50
71291;DHT22;59073;51.994;4.448;2023-03-04T10:48:52;8.53;80.85
71291;DHT22;59073;51.994;4.448;2023-03-04T10:51:24;8.53;79.24
71291;DHT22;59073;51.994;4.448;2023-03-04T10:54:53;8.98;79.07
71291;DHT22;59073;51.994;4.448;2023-03-04T10:56:59;9.26;78.12
71291;DHT22;59073;51.994;4.448;2023-03-04T10:59:39;9.15;78.26
71291;DHT22;59073;51.994;4.448;2023-03-04T11:04:40;9.33;75.01
71291;DHT22;59073;51.994;4.448;2023-03-04T11:07:09;9.32;75.97
71291;DHT22;59073;51.994;4.448;2023-03-04T11:09:36;9.18;75.54
71291;DHT22;59073;51.994;4.448;2023-03-04T11:12:15;8.72;76.71
71291;DHT22;59073;51.994;4.448;2023-03-04T11:14:50;8.91;75.79
71291;DHT22;59073;51.994;4.448;2023-03-04T11:19:47;8.03;79.83
71291;DHT22;59073;51.994;4.448;2023-03-04T11:22:19;7.82;80.60
71291;DHT22;59073;51.994;4.448;2023-03-04T11:25:01;7.93;79.47
71291;DHT22;59073;51.994;4.448;2023-03-04T11:27:39;8.00;79.98
71291;DHT22;59073;51.994;4.448;2023-03-04T11:38:20;8.88;76.71
71291;DHT22;59073;51.994;4.448;2023-03-04T11:40:55;9.15;76.64
71291;DHT22;59073;51.994;4.448;2023-03-04T11:43:33;9.32;76.30
71291;DHT22;59073;51.994;4.448;2023-03-04T11:48:55;9.33;75.31
71291;DHT22;59073;51.994;4.448;2023-03-04T11:57:19;9.15;72.12
71291;DHT22;59073;51.994;4.448;2023-03-04T12:02:22;9.07;73.64
71291;DHT22;59073;51.994;4.448;2023-03-04T12:05:03;9.12;74.10
71291;DHT22;59073;51.994;4.448;2023-03-04T12:13:29;8.48;79.46
71291;DHT22;59073;51.994;4.448;2023-03-04T12:27:31;8.79;80.39
71291;DHT22;59073;51.994;4.448;2023-03-04T12:33:14;8.54;82.16
71291;DHT22;59073;51.994;4.448;2023-03-04T12:41:30;8.57;84.23
71291;DHT22;59073;51.994;4.448;2023-03-04T12:44:13;8.68;84.51
71291;DHT22;59073;51.994;4.448;2023-03-04T12:46:59;7.89;82.46
71291;DHT22;59073;51.994;4.448;2023-03-04T12:49:39;7.55;83.16
71291;DHT22;59073;51.994;4.448;2023-03-04T12:54:47;7.75;84.50
71291;DHT22;59073;51.994;4.448;2023-03-04T12:57:26;7.95;81.39
71291;DHT22;59073;51.994;4.448;2023-03-04T13:00:28;8.25;80.39
71291;DHT22;59073;51.994;4.448;2023-03-04T13:06:14;8.39;78.49
71291;DHT22;59073;51.994;4.448;2023-03-04T13:09:06;8.36;78.53
71291;DHT22;59073;51.994;4.448;2023-03-04T13:11:43;8.26;79.39
71291;DHT22;59073;51.994;4.448;2023-03-04T13:16:47;8.25;77.97
71291;DHT22;59073;51.994;4.448;2023-03-04T13:22:32;8.81;76.40
71291;DHT22;59073;51.994;4.448;2023-03-04T13:25:26;8.88;76.45
71291;DHT22;59073;51.994;4.448;2023-03-04T13:28:01;9.14;75.21
71291;DHT22;59073;51.994;4.448;2023-03-04T13:35:59;9.22;74.32
71291;DHT22;59073;51.994;4.448;2023-03-04T13:41:13;9.08;73.14
71291;DHT22;59073;51.994;4.448;2023-03-04T13:43:50;8.63;74.54
71291;DHT22;59073;51.994;4.448;2023-03-04T13:51:39;8.02;78.04
71291;DHT22;59073;51.994;4.448;2023-03-04T13:54:31;7.89;79.41
71291;DHT22;59073;51.994;4.448;2023-03-04T13:59:45;8.07;79.50
71291;DHT22;59073;51.994;4.448;2023-03-04T14:02:13;8.23;78.36
71291;DHT22;59073;51.994;4.448;2023-03-04T14:07:33;8.32;75.52
71291;DHT22;59073;51.994;4.448;2023-03-04T14:10:21;8.13;75.56
71291;DHT22;59073;51.994;4.448;2023-03-04T14:12:54;8.30;75.78
71291;DHT22;59073;51.994;4.448;2023-03-04T14:15:27;8.50;75.50
71291;DHT22;59073;51.994;4.448;2023-03-04T14:18:02;8.48;74.90
71291;DHT22;59073;51.994;4.448;2023-03-04T14:20:32;8.33;73.87
71291;DHT22;59073;51.994;4.448;2023-03-04T14:23:01;8.22;73.94
71291;DHT22;59073;51.994;4.448;2023-03-04T14:25:33;8.12;73.49
71291;DHT22;59073;51.994;4.448;2023-03-04T14:28:14;8.10;74.11
71291;DHT22;59073;51.994;4.448;2023-03-04T14:30:51;8.22;73.41
71291;DHT22;59073;51.994;4.448;2023-03-04T14:33:22;8.43;73.75
71291;DHT22;59073;51.994;4.448;2023-03-04T14:35:51;8.53;72.17
71291;DHT22;59073;51.994;4.448;2023-03-04T14:44:16;8.14;70.67
71291;DHT22;59073;51.994;4.448;2023-03-04T14:46:50;8.17;70.74
71291;DHT22;59073;51.994;4.448;2023-03-04T14:49:18;8.19;71.54
71291;DHT22;59073;51.994;4.448;2023-03-04T14:51:50;8.14;70.30
71291;DHT22;59073;51.994;4.448;2023-03-04T14:56:52;8.17;70.78
71291;DHT22;59073;51.994;4.448;2023-03-04T14:59:27;8.22;70.48
71291;DHT22;59073;51.994;4.448;2023-03-04T15:01:53;8.25;70.48
71291;DHT22;59073;51.994;4.448;2023-03-04T15:04:18;8.33;68.80
71291;DHT22;59073;51.994;4.448;2023-03-04T15:06:52;8.34;67.85
71291;DHT22;59073;51.994;4.448;2023-03-04T15:09:24;8.36;68.08
71291;DHT22;59073;51.994;4.448;2023-03-04T15:17:28;8.40;67.72
71291;DHT22;59073;51.994;4.448;2023-03-04T15:20:30;8.27;68.55
71291;DHT22;59073;51.994;4.448;2023-03-04T15:22:58;8.20;69.08
71291;DHT22;59073;51.994;4.448;2023-03-04T15:25:25;8.19;69.71
71291;DHT22;59073;51.994;4.448;2023-03-04T15:27:51;8.09;69.00
71291;DHT22;59073;51.994;4.448;2023-03-04T15:30:27;7.93;70.04
71291;DHT22;59073;51.994;4.448;2023-03-04T15:32:55;8.00;70.15
71291;DHT22;59073;51.994;4.448;2023-03-04T15:35:22;7.92;71.89
71291;DHT22;59073;51.994;4.448;2023-03-04T15:37:51;7.72;73.68
71291;DHT22;59073;51.994;4.448;2023-03-04T15:40:29;7.45;76.00
71291;DHT22;59073;51.994;4.448;2023-03-04T15:42:57;7.32;75.83
71291;DHT22;59073;51.994;4.448;2023-03-04T15:46:05;7.45;76.03
71291;DHT22;59073;51.994;4.448;2023-03-04T15:48:34;7.51;75.66
71291;DHT22;59073;51.994;4.448;2023-03-04T15:51:00;7.41;75.61
71291;DHT22;59073;51.994;4.448;2023-03-04T15:53:29;7.50;75.19
71291;DHT22;59073;51.994;4.448;2023-03-04T15:55:57;7.58;74.97
71291;DHT22;59073;51.994;4.448;2023-03-04T15:58:23;7.58;75.34
71291;DHT22;59073;51.994;4.448;2023-03-04T16:00:48;7.78;74.92
71291;DHT22;59073;51.994;4.448;2023-03-04T16:03:16;7.75;74.46
71291;DHT22;59073;51.994;4.448;2023-03-04T16:05:46;7.71;74.35
71291;DHT22;59073;51.994;4.448;2023-03-04T16:08:16;7.74;74.87
71291;DHT22;59073;51.994;4.448;2023-03-04T16:10:43;7.75;74.04
71291;DHT22;59073;51.994;4.448;2023-03-04T16:13:21;7.74;73.44
71291;DHT22;59073;51.994;4.448;2023-03-04T16:15:48;7.85;73.25
71291;DHT22;59073;51.994;4.448;2023-03-04T16:18:15;7.89;73.32
71291;DHT22;59073;51.994;4.448;2023-03-04T16:20:49;7.82;73.63
71291;DHT22;59073;51.994;4.448;2023-03-04T16:23:22;7.75;73.52
71291;DHT22;59073;51.994;4.448;2023-03-04T16:25:53;7.67;73.33
71291;DHT22;59073;51.994;4.448;2023-03-04T16:28:19;7.55;74.15
71291;DHT22;59073;51.994;4.448;2023-03-04T16:30:45;7.67;73.36
71291;DHT22;59073;51.994;4.448;2023-03-04T16:33:11;7.59;73.01
71291;DHT22;59073;51.994;4.448;2023-03-04T16:35:37;7.72;72.90
71291;DHT22;59073;51.994;4.448;2023-03-04T16:38:09;7.61;73.30
71291;DHT22;59073;51.994;4.448;2023-03-04T16:40:38;7.47;74.09
71291;DHT22;59073;51.994;4.448;2023-03-04T16:43:03;7.37;75.04
71291;DHT22;59073;51.994;4.448;2023-03-04T16:45:34;7.16;76.53
71291;DHT22;59073;51.994;4.448;2023-03-04T16:48:02;6.87;79.19
71291;DHT22;59073;51.994;4.448;2023-03-04T16:50:27;6.79;80.61
71291;DHT22;59073;51.994;4.448;2023-03-04T16:52:55;6.73;80.82
71291;DHT22;59073;51.994;4.448;2023-03-04T16:55:26;6.82;80.08
71291;DHT22;59073;51.994;4.448;2023-03-04T16:57:53;6.80;79.00
71291;DHT22;59073;51.994;4.448;2023-03-04T17:00:21;6.96;78.19
71291;DHT22;59073;51.994;4.448;2023-03-04T17:02:54;7.04;77.74
71291;DHT22;59073;51.994;4.448;2023-03-04T17:05:23;6.95;77.52
71291;DHT22;59073;51.994;4.448;2023-03-04T17:07:48;6.85;77.17
71291;DHT22;59073;51.994;4.448;2023-03-04T17:10:15;6.83;77.26
71291;DHT22;59073;51.994;4.448;2023-03-04T17:12:41;6.83;76.34
71291;DHT22;59073;51.994;4.448;2023-03-04T17:15:10;6.87;77.21
71291;DHT22;59073;51.994;4.448;2023-03-04T17:17:37;6.80;77.22
71291;DHT22;59073;51.994;4.448;2023-03-04T17:20:03;6.79;76.92
71291;DHT22;59073;51.994;4.448;2023-03-04T17:22:31;6.75;76.83
71291;DHT22;59073;51.994;4.448;2023-03-04T17:24:57;6.72;77.24
71291;DHT22;59073;51.994;4.448;2023-03-04T17:27:22;6.71;77.04
71291;DHT22;59073;51.994;4.448;2023-03-04T17:29:48;6.64;77.06
71291;DHT22;59073;51.994;4.448;2023-03-04T17:32:18;6.55;77.18
71291;DHT22;59073;51.994;4.448;2023-03-04T17:34:44;6.59;77.32
71291;DHT22;59073;51.994;4.448;2023-03-04T17:37:09;6.62;77.28
71291;DHT22;59073;51.994;4.448;2023-03-04T17:39:35;6.61;78.37
71291;DHT22;59073;51.994;4.448;2023-03-04T17:42:00;6.55;79.00